メインページ
METAR-TAF:

METAR-TAF

空港 :

Parsabad, イラン

緯度: 39-36-13N, 経度: 47-52-53E, 海抜: 77m

現時点の気象観測

当レポートは54分前の08:00(UTC)に作成
の風 4kt
気温 26°C
湿度 39%
気圧 1016 hPa
視程10km以上
1,500メートル以下は雲なし、積乱雲なし

METAR: OITP 250800Z 36004KT CAVOK 26/11 Q1016

時間: 13:24 (08:54 UTC)


TAF: 見つかりません

4,000以上の空港の気象観測と天気予報(METAR報とTAF報)

利用可能な観測所は地図上に黄色い丸と赤い丸で示す。

丸の上にカーソルを重ねると観測所名を参照できる。

次にクリックすると気象観測と天気予報を参照できる。

マップの切り替え:黒色「×」印の緑ボタンをクリックして拡大、「-」印の緑ボタンをクリックして縮小、緑色の三角印をクリックして隣りの地図に切り替え


METAR-TAF: